sensor_id;sensor_type;location;lat;lon;timestamp;pressure;altitude;pressure_sealevel;temperature;humidity
78800;BME280;68148;55.328;86.106;2023-07-13T00:01:26;99601.22;;;21.85;59.25
78800;BME280;68148;55.328;86.106;2023-07-13T00:03:52;99603.81;;;21.64;59.50
78800;BME280;68148;55.328;86.106;2023-07-13T00:06:19;99593.66;;;21.77;59.74
78800;BME280;68148;55.328;86.106;2023-07-13T00:08:45;99589.16;;;22.03;59.40
78800;BME280;68148;55.328;86.106;2023-07-13T00:11:11;99587.81;;;22.05;58.30
78800;BME280;68148;55.328;86.106;2023-07-13T00:13:37;99592.66;;;22.03;59.69
78800;BME280;68148;55.328;86.106;2023-07-13T00:16:03;99596.16;;;22.04;59.42
78800;BME280;68148;55.328;86.106;2023-07-13T00:18:29;99594.53;;;22.03;59.18
78800;BME280;68148;55.328;86.106;2023-07-13T00:21:03;99591.03;;;22.02;58.57
78800;BME280;68148;55.328;86.106;2023-07-13T00:23:29;99587.09;;;21.47;59.59
78800;BME280;68148;55.328;86.106;2023-07-13T00:25:55;99591.22;;;20.85;62.09
78800;BME280;68148;55.328;86.106;2023-07-13T00:28:20;99584.25;;;20.25;63.97
78800;BME280;68148;55.328;86.106;2023-07-13T00:30:46;99584.78;;;20.22;64.48
78800;BME280;68148;55.328;86.106;2023-07-13T00:33:12;99577.88;;;20.04;65.42
78800;BME280;68148;55.328;86.106;2023-07-13T00:35:38;99580.81;;;20.02;65.58
78800;BME280;68148;55.328;86.106;2023-07-13T00:38:04;99580.09;;;20.12;65.65
78800;BME280;68148;55.328;86.106;2023-07-13T00:40:30;99577.50;;;20.17;66.51
78800;BME280;68148;55.328;86.106;2023-07-13T00:42:58;99575.56;;;20.40;65.52
78800;BME280;68148;55.328;86.106;2023-07-13T00:47:50;99559.91;;;20.26;66.41
78800;BME280;68148;55.328;86.106;2023-07-13T00:50:18;99568.78;;;20.32;67.10
78800;BME280;68148;55.328;86.106;2023-07-13T00:52:46;99572.19;;;20.22;67.46
78800;BME280;68148;55.328;86.106;2023-07-13T00:55:14;99574.00;;;20.44;67.29
78800;BME280;68148;55.328;86.106;2023-07-13T00:57:48;99562.28;;;20.50;66.89
78800;BME280;68148;55.328;86.106;2023-07-13T01:00:14;99562.69;;;20.69;66.69
78800;BME280;68148;55.328;86.106;2023-07-13T01:02:43;99562.00;;;20.84;66.63
78800;BME280;68148;55.328;86.106;2023-07-13T01:05:11;99547.03;;;20.93;67.05
78800;BME280;68148;55.328;86.106;2023-07-13T01:07:38;99544.25;;;20.78;67.41
78800;BME280;68148;55.328;86.106;2023-07-13T01:10:04;99540.09;;;20.60;68.28
78800;BME280;68148;55.328;86.106;2023-07-13T01:12:30;99537.16;;;20.61;68.30
78800;BME280;68148;55.328;86.106;2023-07-13T01:15:00;99545.22;;;20.61;68.51
78800;BME280;68148;55.328;86.106;2023-07-13T01:17:28;99541.03;;;20.81;68.20
78800;BME280;68148;55.328;86.106;2023-07-13T01:19:55;99541.41;;;20.94;67.68
78800;BME280;68148;55.328;86.106;2023-07-13T01:22:21;99531.53;;;21.05;67.68
78800;BME280;68148;55.328;86.106;2023-07-13T01:24:48;99537.72;;;21.06;68.21
78800;BME280;68148;55.328;86.106;2023-07-13T01:27:17;99528.34;;;21.08;68.75
78800;BME280;68148;55.328;86.106;2023-07-13T01:29:44;99526.28;;;21.25;67.97
78800;BME280;68148;55.328;86.106;2023-07-13T01:32:11;99526.06;;;21.32;67.77
78800;BME280;68148;55.328;86.106;2023-07-13T01:34:37;99522.88;;;21.40;67.45
78800;BME280;68148;55.328;86.106;2023-07-13T01:37:04;99522.16;;;21.65;66.84
78800;BME280;68148;55.328;86.106;2023-07-13T01:39:30;99511.47;;;21.86;66.20
78800;BME280;68148;55.328;86.106;2023-07-13T01:41:56;99513.31;;;21.70;66.22
78800;BME280;68148;55.328;86.106;2023-07-13T01:44:22;99503.94;;;21.78;66.35
78800;BME280;68148;55.328;86.106;2023-07-13T01:46:48;99510.69;;;22.00;65.98
78800;BME280;68148;55.328;86.106;2023-07-13T01:49:14;99517.94;;;21.95;65.93
78800;BME280;68148;55.328;86.106;2023-07-13T01:51:41;99521.19;;;22.02;65.56
78800;BME280;68148;55.328;86.106;2023-07-13T01:54:07;99517.94;;;21.90;66.21
78800;BME280;68148;55.328;86.106;2023-07-13T01:56:32;99522.75;;;21.83;66.84
78800;BME280;68148;55.328;86.106;2023-07-13T01:58:58;99525.94;;;21.80;66.97
78800;BME280;68148;55.328;86.106;2023-07-13T02:01:24;99528.16;;;21.93;67.30
78800;BME280;68148;55.328;86.106;2023-07-13T02:03:50;99524.91;;;22.01;66.51
78800;BME280;68148;55.328;86.106;2023-07-13T02:06:15;99517.94;;;22.05;66.74
78800;BME280;68148;55.328;86.106;2023-07-13T02:08:41;99522.28;;;22.16;66.78
78800;BME280;68148;55.328;86.106;2023-07-13T02:11:07;99525.25;;;22.40;66.39
78800;BME280;68148;55.328;86.106;2023-07-13T02:13:37;99529.28;;;22.58;66.12
78800;BME280;68148;55.328;86.106;2023-07-13T02:16:02;99523.34;;;22.77;65.31
78800;BME280;68148;55.328;86.106;2023-07-13T02:18:28;99522.53;;;22.96;65.20
78800;BME280;68148;55.328;86.106;2023-07-13T02:20:54;99512.00;;;23.10;65.11
78800;BME280;68148;55.328;86.106;2023-07-13T02:23:20;99505.22;;;23.23;64.70
78800;BME280;68148;55.328;86.106;2023-07-13T02:25:46;99510.25;;;23.40;64.60
78800;BME280;68148;55.328;86.106;2023-07-13T02:28:11;99509.94;;;23.52;63.93
78800;BME280;68148;55.328;86.106;2023-07-13T02:30:37;99502.94;;;23.56;64.17
78800;BME280;68148;55.328;86.106;2023-07-13T02:33:03;99498.84;;;23.58;64.37
78800;BME280;68148;55.328;86.106;2023-07-13T02:35:29;99493.72;;;23.67;64.23
78800;BME280;68148;55.328;86.106;2023-07-13T02:37:55;99489.63;;;23.74;64.30
78800;BME280;68148;55.328;86.106;2023-07-13T02:40:20;99480.53;;;23.60;64.52
78800;BME280;68148;55.328;86.106;2023-07-13T02:42:46;99468.06;;;23.74;64.63
78800;BME280;68148;55.328;86.106;2023-07-13T02:45:12;99467.34;;;24.03;63.65
78800;BME280;68148;55.328;86.106;2023-07-13T02:47:41;99460.06;;;24.04;63.85
78800;BME280;68148;55.328;86.106;2023-07-13T02:50:07;99456.38;;;23.94;65.04
78800;BME280;68148;55.328;86.106;2023-07-13T02:52:33;99453.56;;;24.05;64.29
78800;BME280;68148;55.328;86.106;2023-07-13T02:54:59;99466.41;;;24.18;63.72
78800;BME280;68148;55.328;86.106;2023-07-13T02:57:25;99467.41;;;24.27;62.99
78800;BME280;68148;55.328;86.106;2023-07-13T02:59:51;99452.22;;;24.07;63.60
78800;BME280;68148;55.328;86.106;2023-07-13T03:02:16;99448.56;;;24.22;63.88
78800;BME280;68148;55.328;86.106;2023-07-13T03:04:42;99438.19;;;24.39;64.06
78800;BME280;68148;55.328;86.106;2023-07-13T03:07:08;99417.72;;;24.38;64.00
78800;BME280;68148;55.328;86.106;2023-07-13T03:09:34;99416.25;;;24.51;64.08
78800;BME280;68148;55.328;86.106;2023-07-13T03:12:00;99405.16;;;24.77;62.61
78800;BME280;68148;55.328;86.106;2023-07-13T03:14:26;99413.06;;;24.44;63.52
78800;BME280;68148;55.328;86.106;2023-07-13T03:16:52;99405.56;;;24.36;64.04
78800;BME280;68148;55.328;86.106;2023-07-13T03:19:18;99423.28;;;24.71;63.27
78800;BME280;68148;55.328;86.106;2023-07-13T03:21:44;99430.41;;;24.86;63.40
78800;BME280;68148;55.328;86.106;2023-07-13T03:24:10;99430.94;;;25.12;62.63
78800;BME280;68148;55.328;86.106;2023-07-13T03:26:36;99427.59;;;25.20;61.87
78800;BME280;68148;55.328;86.106;2023-07-13T03:29:04;99427.75;;;25.29;62.30
78800;BME280;68148;55.328;86.106;2023-07-13T03:31:33;99422.66;;;25.27;62.09
78800;BME280;68148;55.328;86.106;2023-07-13T03:33:59;99412.13;;;25.44;61.95
78800;BME280;68148;55.328;86.106;2023-07-13T03:36:28;99410.00;;;25.41;60.96
78800;BME280;68148;55.328;86.106;2023-07-13T03:38:56;99417.53;;;25.44;61.20
78800;BME280;68148;55.328;86.106;2023-07-13T03:41:23;99419.13;;;25.27;61.46
78800;BME280;68148;55.328;86.106;2023-07-13T03:43:50;99409.78;;;25.38;61.82
78800;BME280;68148;55.328;86.106;2023-07-13T03:46:17;99400.31;;;25.78;61.01
78800;BME280;68148;55.328;86.106;2023-07-13T03:48:44;99401.22;;;25.68;60.76
78800;BME280;68148;55.328;86.106;2023-07-13T03:51:12;99406.84;;;25.91;60.69
78800;BME280;68148;55.328;86.106;2023-07-13T03:53:40;99397.22;;;26.31;60.81
78800;BME280;68148;55.328;86.106;2023-07-13T03:56:06;99392.75;;;26.54;59.75
78800;BME280;68148;55.328;86.106;2023-07-13T03:58:35;99391.03;;;26.31;59.33
78800;BME280;68148;55.328;86.106;2023-07-13T04:01:02;99383.59;;;26.22;59.88
78800;BME280;68148;55.328;86.106;2023-07-13T04:03:29;99383.34;;;26.65;59.56
78800;BME280;68148;55.328;86.106;2023-07-13T04:05:55;99373.03;;;26.81;59.52
78800;BME280;68148;55.328;86.106;2023-07-13T04:08:21;99375.91;;;26.99;59.88
78800;BME280;68148;55.328;86.106;2023-07-13T04:10:47;99379.06;;;27.28;59.04
78800;BME280;68148;55.328;86.106;2023-07-13T04:13:12;99371.50;;;27.39;58.99
78800;BME280;68148;55.328;86.106;2023-07-13T04:15:38;99391.84;;;27.50;58.05
78800;BME280;68148;55.328;86.106;2023-07-13T04:18:04;99397.56;;;27.49;58.19
78800;BME280;68148;55.328;86.106;2023-07-13T04:20:30;99401.81;;;27.41;58.54
78800;BME280;68148;55.328;86.106;2023-07-13T04:22:56;99390.16;;;27.40;59.00
78800;BME280;68148;55.328;86.106;2023-07-13T04:25:21;99386.22;;;27.24;58.71
78800;BME280;68148;55.328;86.106;2023-07-13T04:27:47;99384.09;;;27.07;59.60
78800;BME280;68148;55.328;86.106;2023-07-13T04:30:13;99383.44;;;27.15;59.65
78800;BME280;68148;55.328;86.106;2023-07-13T04:32:39;99378.22;;;27.41;58.81
78800;BME280;68148;55.328;86.106;2023-07-13T04:35:05;99377.13;;;27.42;58.92
78800;BME280;68148;55.328;86.106;2023-07-13T04:37:31;99372.09;;;27.36;59.03
78800;BME280;68148;55.328;86.106;2023-07-13T04:39:56;99378.28;;;27.50;59.02
78800;BME280;68148;55.328;86.106;2023-07-13T04:42:22;99387.75;;;27.75;59.16
78800;BME280;68148;55.328;86.106;2023-07-13T04:44:51;99390.03;;;27.82;58.89
78800;BME280;68148;55.328;86.106;2023-07-13T04:47:18;99399.56;;;28.02;57.56
78800;BME280;68148;55.328;86.106;2023-07-13T04:49:44;99395.41;;;28.04;58.16
78800;BME280;68148;55.328;86.106;2023-07-13T04:52:11;99397.22;;;27.86;58.98
78800;BME280;68148;55.328;86.106;2023-07-13T04:54:37;99398.13;;;28.04;58.60
78800;BME280;68148;55.328;86.106;2023-07-13T04:57:04;99394.91;;;28.25;58.08
78800;BME280;68148;55.328;86.106;2023-07-13T04:59:30;99406.41;;;28.30;58.24
78800;BME280;68148;55.328;86.106;2023-07-13T05:01:56;99408.66;;;28.28;58.37
78800;BME280;68148;55.328;86.106;2023-07-13T05:04:22;99409.31;;;28.34;58.02
78800;BME280;68148;55.328;86.106;2023-07-13T05:06:51;99394.47;;;28.31;58.18
78800;BME280;68148;55.328;86.106;2023-07-13T05:09:16;99388.09;;;27.60;59.39
78800;BME280;68148;55.328;86.106;2023-07-13T05:11:43;99384.13;;;27.66;59.71
78800;BME280;68148;55.328;86.106;2023-07-13T05:14:09;99376.13;;;27.61;59.57
78800;BME280;68148;55.328;86.106;2023-07-13T05:16:35;99376.53;;;27.32;61.05
78800;BME280;68148;55.328;86.106;2023-07-13T05:19:02;99377.97;;;27.29;60.85
78800;BME280;68148;55.328;86.106;2023-07-13T05:21:29;99381.16;;;27.31;61.14
78800;BME280;68148;55.328;86.106;2023-07-13T05:23:56;99379.00;;;27.19;61.56
78800;BME280;68148;55.328;86.106;2023-07-13T05:26:21;99367.84;;;27.07;62.53
78800;BME280;68148;55.328;86.106;2023-07-13T05:28:47;99361.31;;;27.08;61.94
78800;BME280;68148;55.328;86.106;2023-07-13T05:31:13;99354.31;;;27.07;62.31
78800;BME280;68148;55.328;86.106;2023-07-13T05:33:39;99343.69;;;26.97;63.09
78800;BME280;68148;55.328;86.106;2023-07-13T05:36:06;99338.69;;;26.90;63.38
78800;BME280;68148;55.328;86.106;2023-07-13T05:38:31;99352.84;;;26.87;63.10
78800;BME280;68148;55.328;86.106;2023-07-13T05:40:58;99363.59;;;26.79;64.19
78800;BME280;68148;55.328;86.106;2023-07-13T05:43:24;99390.47;;;26.61;64.08
78800;BME280;68148;55.328;86.106;2023-07-13T05:45:56;99440.88;;;26.57;64.47
78800;BME280;68148;55.328;86.106;2023-07-13T05:48:22;99511.00;;;26.73;65.07
78800;BME280;68148;55.328;86.106;2023-07-13T05:50:48;99596.38;;;26.65;64.73
78800;BME280;68148;55.328;86.106;2023-07-13T05:53:14;99588.94;;;26.38;61.33
78800;BME280;68148;55.328;86.106;2023-07-13T05:55:47;99685.34;;;25.38;55.14
78800;BME280;68148;55.328;86.106;2023-07-13T05:58:14;99665.28;;;24.46;56.62
78800;BME280;68148;55.328;86.106;2023-07-13T06:00:40;99703.25;;;23.95;58.11
78800;BME280;68148;55.328;86.106;2023-07-13T06:03:06;99642.72;;;23.57;60.40
78800;BME280;68148;55.328;86.106;2023-07-13T06:05:33;99605.41;;;23.05;62.98
78800;BME280;68148;55.328;86.106;2023-07-13T06:07:59;99612.94;;;22.77;64.39
78800;BME280;68148;55.328;86.106;2023-07-13T06:10:25;99660.75;;;22.39;65.62
78800;BME280;68148;55.328;86.106;2023-07-13T06:12:51;99640.75;;;22.10;66.63
78800;BME280;68148;55.328;86.106;2023-07-13T06:15:17;99632.38;;;21.91;67.23
78800;BME280;68148;55.328;86.106;2023-07-13T06:17:43;99636.06;;;21.69;68.90
78800;BME280;68148;55.328;86.106;2023-07-13T06:20:10;99637.47;;;21.35;71.18
78800;BME280;68148;55.328;86.106;2023-07-13T06:22:36;99648.34;;;21.18;72.46
78800;BME280;68148;55.328;86.106;2023-07-13T06:25:05;99654.38;;;20.98;73.97
78800;BME280;68148;55.328;86.106;2023-07-13T06:27:31;99661.22;;;20.84;75.20
78800;BME280;68148;55.328;86.106;2023-07-13T06:29:57;99664.41;;;20.81;75.29
78800;BME280;68148;55.328;86.106;2023-07-13T06:32:22;99652.50;;;20.66;76.00
78800;BME280;68148;55.328;86.106;2023-07-13T06:34:48;99637.38;;;20.55;76.35
78800;BME280;68148;55.328;86.106;2023-07-13T06:37:14;99633.84;;;20.49;75.97
78800;BME280;68148;55.328;86.106;2023-07-13T06:39:40;99630.97;;;20.56;76.35
78800;BME280;68148;55.328;86.106;2023-07-13T06:42:06;99605.63;;;20.47;76.27
78800;BME280;68148;55.328;86.106;2023-07-13T06:44:32;99604.78;;;20.41;76.74
78800;BME280;68148;55.328;86.106;2023-07-13T06:46:58;99604.03;;;20.46;76.58
78800;BME280;68148;55.328;86.106;2023-07-13T06:49:24;99594.31;;;20.40;77.37
78800;BME280;68148;55.328;86.106;2023-07-13T06:51:49;99595.63;;;20.37;77.28
78800;BME280;68148;55.328;86.106;2023-07-13T06:54:15;99597.47;;;20.32;78.35
78800;BME280;68148;55.328;86.106;2023-07-13T06:56:41;99599.03;;;20.27;78.75
78800;BME280;68148;55.328;86.106;2023-07-13T06:59:07;99601.63;;;20.17;79.11
78800;BME280;68148;55.328;86.106;2023-07-13T07:01:34;99617.63;;;20.12;80.46
78800;BME280;68148;55.328;86.106;2023-07-13T07:04:00;99635.34;;;20.13;79.84
78800;BME280;68148;55.328;86.106;2023-07-13T07:06:25;99611.66;;;20.05;80.24
78800;BME280;68148;55.328;86.106;2023-07-13T07:08:52;99563.09;;;19.96;80.38
78800;BME280;68148;55.328;86.106;2023-07-13T07:11:21;99547.16;;;19.85;80.82
78800;BME280;68148;55.328;86.106;2023-07-13T07:13:47;99548.97;;;19.79;81.52
78800;BME280;68148;55.328;86.106;2023-07-13T07:16:13;99552.59;;;19.68;81.88
78800;BME280;68148;55.328;86.106;2023-07-13T07:18:38;99498.44;;;19.61;82.62
78800;BME280;68148;55.328;86.106;2023-07-13T07:21:04;99489.47;;;19.50;84.31
78800;BME280;68148;55.328;86.106;2023-07-13T07:23:30;99481.38;;;19.45;84.61
78800;BME280;68148;55.328;86.106;2023-07-13T07:25:56;99498.69;;;19.37;84.86
78800;BME280;68148;55.328;86.106;2023-07-13T07:28:22;99502.66;;;19.35;84.85
78800;BME280;68148;55.328;86.106;2023-07-13T07:30:51;99482.34;;;19.39;85.03
78800;BME280;68148;55.328;86.106;2023-07-13T07:33:18;99471.34;;;19.35;84.83
78800;BME280;68148;55.328;86.106;2023-07-13T07:35:44;99484.19;;;19.33;84.94
78800;BME280;68148;55.328;86.106;2023-07-13T07:38:09;99455.38;;;19.40;85.28
78800;BME280;68148;55.328;86.106;2023-07-13T07:40:40;99431.34;;;19.45;84.33
78800;BME280;68148;55.328;86.106;2023-07-13T07:43:09;99416.69;;;19.53;84.00
78800;BME280;68148;55.328;86.106;2023-07-13T07:45:41;99403.97;;;19.65;84.48
78800;BME280;68148;55.328;86.106;2023-07-13T07:48:07;99405.66;;;19.71;84.80
78800;BME280;68148;55.328;86.106;2023-07-13T07:50:34;99398.72;;;19.75;84.89
78800;BME280;68148;55.328;86.106;2023-07-13T07:53:00;99381.59;;;19.76;84.63
78800;BME280;68148;55.328;86.106;2023-07-13T07:55:26;99362.59;;;19.78;83.87
78800;BME280;68148;55.328;86.106;2023-07-13T07:57:56;99358.06;;;19.79;84.04
78800;BME280;68148;55.328;86.106;2023-07-13T08:00:21;99352.69;;;19.79;84.57
78800;BME280;68148;55.328;86.106;2023-07-13T08:02:48;99352.84;;;19.62;85.75
78800;BME280;68148;55.328;86.106;2023-07-13T08:05:13;99347.94;;;19.59;85.37
78800;BME280;68148;55.328;86.106;2023-07-13T08:07:40;99321.44;;;19.57;85.40
78800;BME280;68148;55.328;86.106;2023-07-13T08:10:07;99290.50;;;19.66;84.37
78800;BME280;68148;55.328;86.106;2023-07-13T08:12:35;99270.75;;;19.77;84.03
78800;BME280;68148;55.328;86.106;2023-07-13T08:15:02;99278.06;;;19.87;83.51
78800;BME280;68148;55.328;86.106;2023-07-13T08:17:28;99263.59;;;19.88;83.55
78800;BME280;68148;55.328;86.106;2023-07-13T08:19:55;99249.31;;;19.77;83.87
78800;BME280;68148;55.328;86.106;2023-07-13T08:22:20;99230.34;;;19.79;84.26
78800;BME280;68148;55.328;86.106;2023-07-13T08:24:46;99212.38;;;19.74;84.69
78800;BME280;68148;55.328;86.106;2023-07-13T08:27:12;99213.47;;;19.79;84.55
78800;BME280;68148;55.328;86.106;2023-07-13T08:29:38;99197.41;;;19.79;84.37
78800;BME280;68148;55.328;86.106;2023-07-13T08:32:06;99184.25;;;19.77;84.03
78800;BME280;68148;55.328;86.106;2023-07-13T08:34:32;99164.44;;;19.78;84.51
78800;BME280;68148;55.328;86.106;2023-07-13T08:36:57;99210.25;;;19.82;84.68
78800;BME280;68148;55.328;86.106;2023-07-13T08:39:23;99270.22;;;19.81;85.17
78800;BME280;68148;55.328;86.106;2023-07-13T08:41:56;99275.88;;;19.84;85.84
78800;BME280;68148;55.328;86.106;2023-07-13T08:44:30;99274.03;;;19.90;85.17
78800;BME280;68148;55.328;86.106;2023-07-13T08:47:02;99273.56;;;19.98;84.96
78800;BME280;68148;55.328;86.106;2023-07-13T08:49:28;99244.41;;;20.12;84.56
78800;BME280;68148;55.328;86.106;2023-07-13T08:52:02;99217.34;;;20.08;83.36
78800;BME280;68148;55.328;86.106;2023-07-13T08:54:38;99181.44;;;20.04;84.18
78800;BME280;68148;55.328;86.106;2023-07-13T08:57:13;99174.25;;;20.20;84.52
78800;BME280;68148;55.328;86.106;2023-07-13T08:59:40;99176.53;;;20.48;84.23
78800;BME280;68148;55.328;86.106;2023-07-13T09:04:59;99188.13;;;20.95;80.47
78800;BME280;68148;55.328;86.106;2023-07-13T09:10:15;99170.66;;;21.02;79.39
78800;BME280;68148;55.328;86.106;2023-07-13T09:15:37;99178.16;;;21.31;79.33
78800;BME280;68148;55.328;86.106;2023-07-13T09:21:12;99145.91;;;21.67;78.39
78800;BME280;68148;55.328;86.106;2023-07-13T09:23:40;99129.19;;;21.90;81.02
78800;BME280;68148;55.328;86.106;2023-07-13T09:26:23;99123.19;;;22.04;78.05
78800;BME280;68148;55.328;86.106;2023-07-13T09:29:03;99112.19;;;22.00;80.93
78800;BME280;68148;55.328;86.106;2023-07-13T09:31:38;99084.13;;;22.27;79.03
78800;BME280;68148;55.328;86.106;2023-07-13T09:34:09;99081.84;;;22.44;79.41
78800;BME280;68148;55.328;86.106;2023-07-13T09:39:28;99055.59;;;22.70;76.21
78800;BME280;68148;55.328;86.106;2023-07-13T09:47:29;99095.41;;;23.02;74.94
78800;BME280;68148;55.328;86.106;2023-07-13T09:50:01;99141.19;;;22.97;74.64
78800;BME280;68148;55.328;86.106;2023-07-13T09:52:28;99142.47;;;23.05;76.67
78800;BME280;68148;55.328;86.106;2023-07-13T09:55:04;99169.53;;;23.18;74.82
78800;BME280;68148;55.328;86.106;2023-07-13T09:57:30;99198.53;;;23.27;72.21
78800;BME280;68148;55.328;86.106;2023-07-13T09:59:56;99219.31;;;23.21;75.67
78800;BME280;68148;55.328;86.106;2023-07-13T10:02:29;99228.56;;;23.10;72.62
78800;BME280;68148;55.328;86.106;2023-07-13T10:05:01;99218.09;;;23.03;73.80
78800;BME280;68148;55.328;86.106;2023-07-13T10:07:29;99191.63;;;23.15;75.64
78800;BME280;68148;55.328;86.106;2023-07-13T10:09:57;99195.50;;;23.04;73.90
78800;BME280;68148;55.328;86.106;2023-07-13T10:12:24;99217.91;;;22.94;74.90
78800;BME280;68148;55.328;86.106;2023-07-13T10:14:58;99244.78;;;22.50;73.79
78800;BME280;68148;55.328;86.106;2023-07-13T10:17:32;99247.66;;;22.64;75.09
78800;BME280;68148;55.328;86.106;2023-07-13T10:20:04;99262.41;;;22.71;73.85
78800;BME280;68148;55.328;86.106;2023-07-13T10:25:25;99251.03;;;22.90;75.14
78800;BME280;68148;55.328;86.106;2023-07-13T10:27:55;99263.19;;;22.77;76.18
78800;BME280;68148;55.328;86.106;2023-07-13T10:30:30;99268.34;;;22.68;75.83
78800;BME280;68148;55.328;86.106;2023-07-13T10:33:02;99271.06;;;22.63;74.63
78800;BME280;68148;55.328;86.106;2023-07-13T10:35:30;99283.38;;;22.15;75.32
78800;BME280;68148;55.328;86.106;2023-07-13T10:38:10;99308.88;;;22.07;76.92
78800;BME280;68148;55.328;86.106;2023-07-13T10:40:39;99324.22;;;21.91;77.96
78800;BME280;68148;55.328;86.106;2023-07-13T10:43:12;99318.59;;;21.83;78.70
78800;BME280;68148;55.328;86.106;2023-07-13T10:45:40;99313.22;;;21.78;77.90
78800;BME280;68148;55.328;86.106;2023-07-13T10:48:09;99296.59;;;21.60;78.58
78800;BME280;68148;55.328;86.106;2023-07-13T10:50:41;99295.78;;;21.55;78.36
78800;BME280;68148;55.328;86.106;2023-07-13T10:53:30;99325.78;;;21.16;80.22
78800;BME280;68148;55.328;86.106;2023-07-13T10:56:27;99324.72;;;21.17;80.44
78800;BME280;68148;55.328;86.106;2023-07-13T10:59:12;99307.31;;;21.40;80.31
78800;BME280;68148;55.328;86.106;2023-07-13T11:01:50;99295.25;;;21.47;79.46
78800;BME280;68148;55.328;86.106;2023-07-13T11:04:19;99307.53;;;21.23;79.91
78800;BME280;68148;55.328;86.106;2023-07-13T11:06:47;99290.06;;;21.10;81.41
78800;BME280;68148;55.328;86.106;2023-07-13T11:11:59;99288.00;;;21.33;80.05
78800;BME280;68148;55.328;86.106;2023-07-13T11:14:29;99305.97;;;21.42;79.80
78800;BME280;68148;55.328;86.106;2023-07-13T11:16:55;99303.81;;;21.49;80.90
78800;BME280;68148;55.328;86.106;2023-07-13T11:22:11;99290.13;;;21.51;78.27
78800;BME280;68148;55.328;86.106;2023-07-13T11:24:59;99310.00;;;21.45;79.56
78800;BME280;68148;55.328;86.106;2023-07-13T11:33:04;99330.69;;;21.55;79.06
78800;BME280;68148;55.328;86.106;2023-07-13T11:35:37;99335.50;;;21.58;80.82
78800;BME280;68148;55.328;86.106;2023-07-13T11:38:14;99322.38;;;21.71;80.00
78800;BME280;68148;55.328;86.106;2023-07-13T11:40:42;99325.81;;;21.92;80.50
78800;BME280;68148;55.328;86.106;2023-07-13T11:43:13;99334.38;;;22.10;78.83
78800;BME280;68148;55.328;86.106;2023-07-13T11:45:39;99334.63;;;22.39;79.26
78800;BME280;68148;55.328;86.106;2023-07-13T11:48:05;99330.81;;;22.55;76.42
78800;BME280;68148;55.328;86.106;2023-07-13T11:50:30;99323.44;;;22.76;79.25
78800;BME280;68148;55.328;86.106;2023-07-13T11:52:58;99321.63;;;23.16;78.53
78800;BME280;68148;55.328;86.106;2023-07-13T11:55:25;99329.09;;;23.29;77.23
78800;BME280;68148;55.328;86.106;2023-07-13T11:57:56;99331.56;;;23.20;72.94
78800;BME280;68148;55.328;86.106;2023-07-13T12:00:28;99323.81;;;23.53;72.85
78800;BME280;68148;55.328;86.106;2023-07-13T12:02:58;99329.56;;;23.76;72.32
78800;BME280;68148;55.328;86.106;2023-07-13T12:05:24;99311.03;;;23.35;73.54
78800;BME280;68148;55.328;86.106;2023-07-13T12:07:51;99309.59;;;23.82;75.54
78800;BME280;68148;55.328;86.106;2023-07-13T12:10:20;99300.31;;;23.93;70.01
78800;BME280;68148;55.328;86.106;2023-07-13T12:12:52;99300.84;;;23.95;70.41
78800;BME280;68148;55.328;86.106;2023-07-13T12:15:19;99302.38;;;24.01;72.80
78800;BME280;68148;55.328;86.106;2023-07-13T12:17:45;99290.81;;;24.24;70.77
78800;BME280;68148;55.328;86.106;2023-07-13T12:20:37;99285.25;;;24.40;67.66
78800;BME280;68148;55.328;86.106;2023-07-13T12:25:48;99283.25;;;24.69;66.40
78800;BME280;68148;55.328;86.106;2023-07-13T12:28:22;99280.50;;;24.74;70.80
78800;BME280;68148;55.328;86.106;2023-07-13T12:30:49;99291.94;;;24.66;69.15
78800;BME280;68148;55.328;86.106;2023-07-13T12:33:16;99297.69;;;24.36;69.31
78800;BME280;68148;55.328;86.106;2023-07-13T12:35:46;99278.06;;;24.06;68.96
78800;BME280;68148;55.328;86.106;2023-07-13T12:38:13;99276.03;;;23.93;69.27
78800;BME280;68148;55.328;86.106;2023-07-13T12:40:42;99260.56;;;24.04;70.13
78800;BME280;68148;55.328;86.106;2023-07-13T12:43:13;99251.50;;;24.18;68.14
78800;BME280;68148;55.328;86.106;2023-07-13T12:46:00;99253.81;;;24.54;70.02
78800;BME280;68148;55.328;86.106;2023-07-13T12:48:27;99246.44;;;24.79;68.42
78800;BME280;68148;55.328;86.106;2023-07-13T12:50:54;99252.84;;;24.64;69.31
78800;BME280;68148;55.328;86.106;2023-07-13T12:53:23;99241.75;;;24.46;68.60
78800;BME280;68148;55.328;86.106;2023-07-13T12:55:56;99232.44;;;24.34;67.90
78800;BME280;68148;55.328;86.106;2023-07-13T12:58:36;99240.78;;;24.13;69.01
78800;BME280;68148;55.328;86.106;2023-07-13T13:01:04;99239.72;;;23.85;70.46
78800;BME280;68148;55.328;86.106;2023-07-13T13:03:37;99244.09;;;23.52;70.87
78800;BME280;68148;55.328;86.106;2023-07-13T13:06:21;99241.81;;;23.35;71.41
78800;BME280;68148;55.328;86.106;2023-07-13T13:08:49;99233.59;;;23.16;72.10
78800;BME280;68148;55.328;86.106;2023-07-13T13:11:16;99243.69;;;23.01;72.67
78800;BME280;68148;55.328;86.106;2023-07-13T13:13:42;99250.47;;;22.93;73.36
78800;BME280;68148;55.328;86.106;2023-07-13T13:16:17;99236.81;;;22.79;73.55
78800;BME280;68148;55.328;86.106;2023-07-13T13:18:49;99222.09;;;22.66;74.52
78800;BME280;68148;55.328;86.106;2023-07-13T13:21:17;99202.66;;;22.80;73.77
78800;BME280;68148;55.328;86.106;2023-07-13T13:23:43;99199.72;;;22.76;73.96
78800;BME280;68148;55.328;86.106;2023-07-13T13:26:27;99202.19;;;22.67;74.98
78800;BME280;68148;55.328;86.106;2023-07-13T13:28:54;99202.59;;;22.85;75.08
78800;BME280;68148;55.328;86.106;2023-07-13T13:31:19;99207.63;;;23.02;73.95
78800;BME280;68148;55.328;86.106;2023-07-13T13:33:46;99215.41;;;23.03;73.87